createdAt,value
2023-01-09T00:00:55.114Z,14.38
2023-01-09T00:03:22.011Z,13.27
2023-01-09T00:05:48.736Z,11.23
2023-01-09T00:08:15.449Z,12.95
2023-01-09T00:10:42.201Z,13.05
2023-01-09T00:13:11.828Z,11.85
2023-01-09T00:15:39.519Z,12.13
2023-01-09T00:18:06.406Z,12.05
2023-01-09T00:20:33.128Z,10.35
2023-01-09T00:22:59.807Z,9.75
2023-01-09T00:25:26.532Z,9.68
2023-01-09T00:27:53.244Z,16.88
2023-01-09T00:30:20.052Z,13.65
2023-01-09T00:32:46.713Z,9.27
2023-01-09T00:35:16.382Z,9.93
2023-01-09T00:37:43.217Z,12.55
2023-01-09T00:40:10.999Z,12.25
2023-01-09T00:42:37.905Z,9.93
2023-01-09T00:45:09.876Z,7.70
2023-01-09T00:47:39.507Z,9.77
2023-01-09T00:50:12.743Z,9.15
2023-01-09T00:55:06.796Z,11.57
2023-01-09T00:57:33.511Z,13.50
2023-01-09T01:00:00.551Z,12.77
2023-01-09T01:02:27.454Z,11.98
2023-01-09T01:05:13.228Z,13.05
2023-01-09T01:07:40.131Z,12.90
2023-01-09T01:10:16.225Z,13.70
2023-01-09T01:12:43.699Z,13.98
2023-01-09T01:15:10.827Z,13.13
2023-01-09T01:17:38.833Z,13.73
2023-01-09T01:20:12.663Z,14.50
2023-01-09T01:22:39.875Z,11.63
2023-01-09T01:25:06.562Z,10.63
2023-01-09T01:27:33.222Z,9.40
2023-01-09T01:29:59.909Z,13.63
2023-01-09T01:32:26.576Z,11.00
2023-01-09T01:34:53.301Z,12.73
2023-01-09T01:37:21.858Z,14.90
2023-01-09T01:39:48.562Z,16.17
2023-01-09T01:42:15.454Z,13.50
2023-01-09T01:45:21.421Z,10.27
2023-01-09T01:47:54.592Z,10.82
2023-01-09T01:53:02.411Z,13.48
2023-01-09T01:55:29.127Z,14.43
2023-01-09T01:58:00.401Z,10.88
2023-01-09T02:00:31.699Z,11.30
2023-01-09T02:02:59.841Z,9.55
2023-01-09T02:05:26.579Z,9.18
2023-01-09T02:07:53.298Z,12.50
2023-01-09T02:10:23.418Z,8.85
2023-01-09T02:12:50.708Z,9.88
2023-01-09T02:15:18.229Z,9.57
2023-01-09T02:18:16.009Z,11.35
2023-01-09T02:20:56.448Z,12.77
2023-01-09T02:23:49.292Z,9.15
2023-01-09T02:26:40.900Z,10.43
2023-01-09T02:29:26.370Z,9.32
2023-01-09T02:32:22.654Z,9.25
2023-01-09T02:35:19.897Z,7.32
2023-01-09T02:37:49.376Z,7.40
2023-01-09T02:40:29.602Z,8.68
2023-01-09T02:42:57.650Z,9.48
2023-01-09T02:45:24.491Z,6.35
2023-01-09T02:47:51.288Z,8.15
2023-01-09T02:50:23.232Z,5.38
2023-01-09T02:53:12.960Z,4.80
2023-01-09T02:56:10.312Z,2.60
2023-01-09T02:58:50.763Z,2.97
2023-01-09T03:01:29.405Z,3.10
2023-01-09T03:04:30.452Z,3.47
2023-01-09T03:07:09.050Z,3.75
2023-01-09T03:09:37.650Z,2.22
2023-01-09T03:12:16.389Z,3.90
2023-01-09T03:14:47.269Z,2.30
2023-01-09T03:17:16.301Z,1.08
2023-01-09T03:19:45.396Z,1.33
2023-01-09T03:22:12.406Z,1.38
2023-01-09T03:24:39.141Z,1.27
2023-01-09T03:27:09.490Z,1.55
2023-01-09T03:29:45.564Z,1.65
2023-01-09T03:32:12.628Z,1.92
2023-01-09T03:34:39.341Z,1.80
2023-01-09T03:37:06.029Z,0.98
2023-01-09T03:39:32.823Z,2.60
2023-01-09T03:41:59.583Z,4.93
2023-01-09T03:44:26.274Z,0.80
2023-01-09T03:46:52.979Z,2.60
2023-01-09T03:49:19.751Z,1.60
2023-01-09T03:51:46.514Z,1.88
2023-01-09T03:54:13.429Z,1.10
2023-01-09T03:56:40.160Z,1.77
2023-01-09T03:59:06.836Z,2.85
2023-01-09T04:01:33.864Z,4.78
2023-01-09T04:04:00.627Z,2.70
2023-01-09T04:06:27.460Z,3.08
2023-01-09T04:08:54.113Z,2.75
2023-01-09T04:11:22.361Z,1.15
2023-01-09T04:13:49.023Z,1.50
2023-01-09T04:16:15.760Z,1.83
2023-01-09T04:18:42.503Z,2.88
2023-01-09T04:21:09.307Z,2.00
2023-01-09T04:23:36.048Z,1.25
2023-01-09T04:26:03.200Z,0.88
2023-01-09T04:28:29.915Z,0.70
2023-01-09T04:30:56.708Z,1.08
2023-01-09T04:33:23.399Z,2.15
2023-01-09T04:35:50.093Z,1.38
2023-01-09T04:38:16.802Z,0.73
2023-01-09T04:40:43.438Z,1.15
2023-01-09T04:43:10.146Z,1.75
2023-01-09T04:45:36.887Z,2.05
2023-01-09T04:48:03.769Z,0.68
2023-01-09T04:50:31.443Z,2.17
2023-01-09T04:52:58.361Z,1.52
2023-01-09T04:55:25.006Z,4.10
2023-01-09T04:57:51.818Z,0.75
2023-01-09T05:00:18.590Z,0.95
2023-01-09T05:02:45.387Z,2.63
2023-01-09T05:05:12.273Z,1.75
2023-01-09T05:07:39.508Z,4.10
2023-01-09T05:10:07.332Z,2.88
2023-01-09T05:12:37.001Z,1.08
2023-01-09T05:15:04.946Z,3.40
2023-01-09T05:17:31.659Z,3.92
2023-01-09T05:19:58.506Z,2.10
2023-01-09T05:22:25.287Z,0.85
2023-01-09T05:24:52.014Z,2.20
2023-01-09T05:27:18.675Z,3.20
2023-01-09T05:29:45.336Z,1.02
2023-01-09T05:32:12.123Z,3.17
2023-01-09T05:34:38.839Z,1.95
2023-01-09T05:37:05.568Z,0.88
2023-01-09T05:39:32.296Z,3.08
2023-01-09T05:41:59.060Z,3.40
2023-01-09T05:44:25.753Z,2.97
2023-01-09T05:46:52.658Z,1.95
2023-01-09T05:49:19.334Z,1.30
2023-01-09T05:51:46.104Z,1.10
2023-01-09T05:54:12.811Z,1.38
2023-01-09T05:56:39.491Z,2.72
2023-01-09T05:59:06.292Z,3.88
2023-01-09T06:01:33.058Z,2.88
2023-01-09T06:03:59.922Z,1.67
2023-01-09T06:06:26.609Z,2.15
2023-01-09T06:08:53.360Z,4.55
2023-01-09T06:11:20.065Z,0.82
2023-01-09T06:13:46.770Z,1.98
2023-01-09T06:16:14.044Z,1.63
2023-01-09T06:18:40.864Z,3.67
2023-01-09T06:21:07.587Z,4.18
2023-01-09T06:23:34.505Z,3.45
2023-01-09T06:26:01.397Z,3.00
2023-01-09T06:28:28.085Z,3.78
2023-01-09T06:30:54.786Z,4.43
2023-01-09T06:33:21.525Z,2.97
2023-01-09T06:35:48.207Z,1.98
2023-01-09T06:38:15.132Z,2.72
2023-01-09T06:40:41.905Z,1.73
2023-01-09T06:43:08.602Z,2.00
2023-01-09T06:45:35.302Z,6.55
2023-01-09T06:48:02.089Z,3.70
2023-01-09T06:50:28.849Z,3.15
2023-01-09T06:52:55.535Z,6.45
2023-01-09T06:55:22.201Z,5.63
2023-01-09T06:57:48.867Z,6.78
2023-01-09T07:00:16.026Z,10.32
2023-01-09T07:02:42.743Z,5.03
2023-01-09T07:05:11.746Z,4.43
2023-01-09T07:07:39.557Z,5.22
2023-01-09T07:10:06.751Z,3.67
2023-01-09T07:12:33.442Z,2.70
2023-01-09T07:15:00.119Z,2.33
2023-01-09T07:17:26.974Z,3.50
2023-01-09T07:19:53.636Z,10.50
2023-01-09T07:22:20.355Z,6.03
2023-01-09T07:24:47.483Z,15.07
2023-01-09T07:27:14.144Z,4.85
2023-01-09T07:29:40.808Z,6.28
2023-01-09T07:32:07.810Z,6.05
2023-01-09T07:34:34.662Z,5.90
2023-01-09T07:37:01.440Z,3.20
2023-01-09T07:39:28.163Z,7.18
2023-01-09T07:41:54.857Z,5.10
2023-01-09T07:44:21.542Z,7.80
2023-01-09T07:46:48.218Z,2.50
2023-01-09T07:49:14.896Z,9.00
2023-01-09T07:51:43.223Z,3.92
2023-01-09T07:54:11.471Z,6.18
2023-01-09T07:56:39.268Z,5.03
2023-01-09T07:59:06.079Z,2.80
2023-01-09T08:01:32.841Z,1.85
2023-01-09T08:03:59.583Z,3.95
2023-01-09T08:06:26.349Z,6.57
2023-01-09T08:08:53.002Z,2.50
2023-01-09T08:11:19.679Z,6.13
2023-01-09T08:13:46.372Z,9.43
2023-01-09T08:16:13.137Z,6.22
2023-01-09T08:18:39.864Z,8.77
2023-01-09T08:21:06.598Z,2.95
2023-01-09T08:23:33.547Z,2.83
2023-01-09T08:26:00.342Z,3.72
2023-01-09T08:28:27.025Z,6.78
2023-01-09T08:30:53.673Z,8.32
2023-01-09T08:33:20.374Z,4.05
2023-01-09T08:35:47.122Z,6.50
2023-01-09T08:38:13.933Z,7.28
2023-01-09T08:40:40.616Z,6.88
2023-01-09T08:44:01.366Z,4.35
2023-01-09T08:46:46.770Z,3.40
2023-01-09T08:49:13.434Z,5.90
2023-01-09T08:51:40.088Z,6.90
2023-01-09T08:54:06.681Z,2.58
2023-01-09T08:56:33.296Z,3.30
2023-01-09T08:58:59.921Z,3.85
2023-01-09T09:01:26.626Z,5.93
2023-01-09T09:03:53.621Z,7.05
2023-01-09T09:06:20.305Z,7.40
2023-01-09T09:08:46.946Z,6.22
2023-01-09T09:11:13.595Z,8.30
2023-01-09T09:13:40.228Z,9.07
2023-01-09T09:16:06.985Z,4.60
2023-01-09T09:18:33.757Z,8.05
2023-01-09T09:21:00.443Z,5.10
2023-01-09T09:23:27.189Z,3.70
2023-01-09T09:25:53.875Z,2.58
2023-01-09T09:28:20.589Z,10.50
2023-01-09T09:30:47.362Z,4.55
2023-01-09T09:33:14.096Z,4.93
2023-01-09T09:35:40.751Z,7.13
2023-01-09T09:38:07.484Z,6.78
2023-01-09T09:40:52.442Z,5.95
2023-01-09T09:43:59.664Z,2.95
2023-01-09T09:46:30.374Z,3.67
2023-01-09T09:49:00.455Z,3.60
2023-01-09T09:51:45.155Z,4.03
2023-01-09T09:54:18.761Z,4.88
2023-01-09T09:56:51.246Z,8.18
2023-01-09T09:59:20.906Z,5.35
2023-01-09T10:01:52.934Z,5.95
2023-01-09T10:04:21.642Z,6.07
2023-01-09T10:06:51.700Z,1.77
2023-01-09T10:09:45.757Z,1.70
2023-01-09T10:12:43.051Z,4.50
2023-01-09T10:15:26.536Z,4.20
2023-01-09T10:20:25.341Z,3.28
2023-01-09T10:23:04.209Z,4.78
2023-01-09T10:25:40.538Z,5.97
2023-01-09T10:28:43.430Z,2.60
2023-01-09T10:31:19.149Z,2.00
2023-01-09T10:33:56.196Z,3.47
2023-01-09T10:36:33.937Z,2.38
2023-01-09T10:39:04.373Z,4.00
2023-01-09T10:41:41.198Z,4.22
2023-01-09T10:44:17.751Z,6.38
2023-01-09T10:46:52.261Z,2.65
2023-01-09T10:49:19.539Z,5.07
2023-01-09T10:51:58.595Z,5.88
2023-01-09T10:54:25.547Z,3.05
2023-01-09T10:57:10.938Z,3.88
2023-01-09T10:59:37.576Z,5.90
2023-01-09T11:02:04.441Z,1.25
2023-01-09T11:04:33.965Z,6.32
2023-01-09T11:07:04.764Z,4.40
2023-01-09T11:09:56.956Z,2.25
2023-01-09T11:12:26.175Z,2.88
2023-01-09T11:14:52.924Z,5.03
2023-01-09T11:17:27.247Z,2.30
2023-01-09T11:20:05.661Z,2.92
2023-01-09T11:22:48.319Z,4.45
2023-01-09T11:25:17.111Z,1.88
2023-01-09T11:27:43.763Z,1.63
2023-01-09T11:30:20.295Z,5.47
2023-01-09T11:32:47.818Z,4.53
2023-01-09T11:35:22.740Z,6.03
2023-01-09T11:37:58.634Z,4.75
2023-01-09T11:40:25.444Z,3.35
2023-01-09T11:43:11.418Z,4.18
2023-01-09T11:45:50.186Z,6.55
2023-01-09T11:48:33.730Z,4.88
2023-01-09T11:51:02.471Z,7.05
2023-01-09T11:53:29.568Z,4.97
2023-01-09T11:56:01.265Z,5.28
2023-01-09T11:58:33.268Z,6.78
2023-01-09T12:01:30.478Z,5.10
2023-01-09T12:04:11.039Z,5.78
2023-01-09T12:07:05.352Z,3.33
2023-01-09T12:09:35.252Z,2.70
2023-01-09T12:12:18.449Z,3.67
2023-01-09T12:15:00.271Z,3.75
2023-01-09T12:17:41.777Z,3.40
2023-01-09T12:20:21.214Z,9.18
2023-01-09T12:23:04.937Z,8.57
2023-01-09T12:25:53.628Z,3.05
2023-01-09T12:28:20.228Z,6.53
2023-01-09T12:30:54.081Z,4.20
2023-01-09T12:33:54.606Z,4.88
2023-01-09T12:36:48.005Z,2.58
2023-01-09T12:39:45.168Z,6.43
2023-01-09T12:42:17.589Z,7.68
2023-01-09T12:44:50.665Z,6.20
2023-01-09T12:47:48.030Z,5.15
2023-01-09T12:50:14.596Z,2.95
2023-01-09T12:52:46.297Z,5.43
2023-01-09T12:55:17.294Z,1.67
2023-01-09T12:57:47.151Z,3.13
2023-01-09T13:00:19.565Z,5.40
2023-01-09T13:03:00.644Z,1.77
2023-01-09T13:05:37.113Z,6.00
2023-01-09T13:08:08.549Z,6.22
2023-01-09T13:10:48.181Z,3.08
2023-01-09T13:13:43.447Z,4.38
2023-01-09T13:16:15.678Z,7.72
2023-01-09T13:19:31.691Z,7.22
2023-01-09T13:21:58.843Z,5.18
2023-01-09T13:24:37.239Z,2.05
2023-01-09T13:27:24.763Z,5.47
2023-01-09T13:29:55.923Z,2.58
2023-01-09T13:32:25.558Z,5.05
2023-01-09T13:34:53.855Z,6.30
2023-01-09T13:37:31.794Z,6.43
2023-01-09T13:40:26.736Z,4.63
2023-01-09T13:43:05.402Z,3.90
2023-01-09T13:45:34.430Z,6.15
2023-01-09T13:48:22.285Z,4.15
2023-01-09T13:50:50.981Z,2.80
2023-01-09T13:53:17.574Z,7.15
2023-01-09T13:55:59.587Z,4.13
2023-01-09T13:58:39.483Z,4.03
2023-01-09T14:01:24.643Z,4.43
2023-01-09T14:04:09.295Z,3.85
2023-01-09T14:06:36.053Z,4.55
2023-01-09T14:09:22.860Z,4.15
2023-01-09T14:12:02.605Z,4.88
2023-01-09T14:14:33.076Z,3.65
2023-01-09T14:17:00.409Z,1.88
2023-01-09T14:19:32.984Z,3.47
2023-01-09T14:21:59.884Z,2.75
2023-01-09T14:24:39.906Z,5.25
2023-01-09T14:27:44.950Z,5.53
2023-01-09T14:30:28.415Z,7.95
2023-01-09T14:35:27.951Z,1.60
2023-01-09T14:38:30.132Z,4.85
2023-01-09T14:41:16.965Z,9.38
2023-01-09T14:43:56.796Z,1.95
2023-01-09T14:46:23.487Z,3.53
2023-01-09T14:49:26.011Z,2.80
2023-01-09T14:51:53.587Z,3.75
2023-01-09T14:54:35.996Z,7.50
2023-01-09T14:57:02.896Z,5.28
2023-01-09T14:59:29.863Z,5.70
2023-01-09T15:01:58.655Z,4.70
2023-01-09T15:04:31.732Z,3.85
2023-01-09T15:06:59.205Z,3.95
2023-01-09T15:09:33.910Z,5.60
2023-01-09T15:12:04.975Z,2.80
2023-01-09T15:14:39.986Z,3.13
2023-01-09T15:17:16.733Z,4.57
2023-01-09T15:19:45.042Z,4.93
2023-01-09T15:22:35.536Z,7.70
2023-01-09T15:25:44.865Z,5.00
2023-01-09T15:28:28.039Z,5.80
2023-01-09T15:31:04.563Z,6.75
2023-01-09T15:33:32.040Z,6.75
2023-01-09T15:36:02.593Z,3.70
2023-01-09T15:38:31.583Z,9.48
2023-01-09T15:41:00.598Z,3.15
2023-01-09T15:43:29.271Z,5.65
2023-01-09T15:45:56.129Z,3.50
2023-01-09T15:48:32.799Z,5.30
2023-01-09T15:51:04.537Z,6.65
2023-01-09T15:53:31.484Z,5.75
2023-01-09T15:56:30.569Z,3.22
2023-01-09T15:58:58.521Z,1.80
2023-01-09T16:01:34.407Z,5.53
2023-01-09T16:04:07.011Z,4.80
2023-01-09T16:06:47.876Z,5.13
2023-01-09T16:09:21.576Z,4.32
2023-01-09T16:11:53.031Z,3.45
2023-01-09T16:14:27.386Z,5.68
2023-01-09T16:17:02.553Z,4.75
2023-01-09T16:19:48.915Z,4.20
2023-01-09T16:22:34.070Z,2.90
2023-01-09T16:25:03.058Z,4.78
2023-01-09T16:27:33.267Z,6.68
2023-01-09T16:30:04.524Z,4.40
2023-01-09T16:32:33.576Z,7.20
2023-01-09T16:35:05.520Z,3.88
2023-01-09T16:37:33.298Z,4.20
2023-01-09T16:40:08.762Z,4.03
2023-01-09T16:42:54.087Z,5.45
2023-01-09T16:45:21.041Z,3.75
2023-01-09T16:47:47.705Z,6.60
2023-01-09T16:50:14.391Z,8.98
2023-01-09T16:52:41.081Z,9.02
2023-01-09T16:55:09.549Z,3.35
2023-01-09T16:57:36.318Z,7.68
2023-01-09T17:00:04.197Z,5.88
2023-01-09T17:02:30.961Z,8.63
2023-01-09T17:04:59.222Z,5.55
2023-01-09T17:07:25.907Z,8.07
2023-01-09T17:09:53.400Z,7.97
2023-01-09T17:12:21.813Z,9.10
2023-01-09T17:14:49.353Z,4.32
2023-01-09T17:17:17.130Z,5.95
2023-01-09T17:19:46.564Z,4.95
2023-01-09T17:22:14.244Z,8.02
2023-01-09T17:24:59.534Z,4.38
2023-01-09T17:27:52.000Z,5.28
2023-01-09T17:30:19.997Z,8.95
2023-01-09T17:32:47.511Z,5.78
2023-01-09T17:35:15.764Z,5.00
2023-01-09T17:37:42.583Z,5.97
2023-01-09T17:40:20.223Z,6.38
2023-01-09T17:42:46.962Z,5.05
2023-01-09T17:45:13.836Z,7.95
2023-01-09T17:47:40.534Z,12.55
2023-01-09T17:50:07.758Z,5.35
2023-01-09T17:52:35.880Z,6.15
2023-01-09T17:55:08.642Z,4.95
2023-01-09T17:57:36.817Z,5.95
2023-01-09T18:00:06.165Z,4.78
2023-01-09T18:02:33.067Z,8.32
2023-01-09T18:04:59.884Z,6.82
2023-01-09T18:07:26.599Z,3.17
2023-01-09T18:09:53.424Z,3.72
2023-01-09T18:12:20.157Z,6.05
2023-01-09T18:14:47.912Z,4.65
2023-01-09T18:17:14.762Z,5.43
2023-01-09T18:19:41.685Z,3.30
2023-01-09T18:22:08.524Z,4.82
2023-01-09T18:24:35.310Z,4.78
2023-01-09T18:27:02.025Z,2.47
2023-01-09T18:29:28.915Z,5.40
2023-01-09T18:31:55.694Z,4.30
2023-01-09T18:34:22.595Z,3.63
2023-01-09T18:36:49.456Z,5.68
2023-01-09T18:39:16.307Z,3.42
2023-01-09T18:41:43.180Z,3.45
2023-01-09T18:44:09.933Z,4.00
2023-01-09T18:46:38.478Z,3.97
2023-01-09T18:49:05.477Z,2.25
2023-01-09T18:51:34.108Z,5.20
2023-01-09T18:54:00.902Z,4.50
2023-01-09T18:56:27.655Z,2.28
2023-01-09T18:58:58.361Z,2.30
2023-01-09T19:01:26.533Z,1.88
2023-01-09T19:03:53.456Z,3.25
2023-01-09T19:06:20.302Z,6.78
2023-01-09T19:08:47.203Z,4.63
2023-01-09T19:11:14.160Z,5.68
2023-01-09T19:13:41.054Z,3.70
2023-01-09T19:16:08.590Z,5.38
2023-01-09T19:21:20.442Z,4.53
2023-01-09T19:23:47.922Z,8.52
2023-01-09T19:26:20.740Z,4.30
2023-01-09T19:28:47.951Z,4.57
2023-01-09T19:31:15.003Z,5.03
2023-01-09T19:33:42.109Z,5.90
2023-01-09T19:36:08.930Z,6.50
2023-01-09T19:38:35.880Z,2.25
2023-01-09T19:41:14.354Z,4.22
2023-01-09T19:43:41.532Z,6.20
2023-01-09T19:46:10.236Z,7.13
2023-01-09T19:48:37.105Z,7.20
2023-01-09T19:51:06.345Z,4.78
2023-01-09T19:53:34.391Z,5.25
2023-01-09T19:56:10.119Z,6.50
2023-01-09T19:58:37.003Z,6.93
2023-01-09T20:01:11.747Z,6.47
2023-01-09T20:03:45.236Z,4.80
2023-01-09T20:06:17.428Z,5.32
2023-01-09T20:08:45.289Z,9.90
2023-01-09T20:11:12.084Z,12.52
2023-01-09T20:13:38.957Z,13.43
2023-01-09T20:16:06.719Z,5.55
2023-01-09T20:18:34.899Z,6.88
2023-01-09T20:21:01.936Z,4.30
2023-01-09T20:23:28.897Z,7.53
2023-01-09T20:25:56.104Z,6.45
2023-01-09T20:28:23.428Z,12.13
2023-01-09T20:30:51.687Z,13.13
2023-01-09T20:33:19.472Z,22.48
2023-01-09T20:35:46.632Z,15.43
2023-01-09T20:38:13.943Z,17.88
2023-01-09T20:40:43.808Z,17.10
2023-01-09T20:43:12.401Z,23.38
2023-01-09T20:45:39.843Z,23.88
2023-01-09T20:48:07.952Z,17.20
2023-01-09T20:50:34.658Z,22.27
2023-01-09T20:53:01.355Z,15.23
2023-01-09T20:55:28.223Z,23.33
2023-01-09T20:57:54.948Z,35.70
2023-01-09T21:00:23.591Z,29.08
2023-01-09T21:02:50.544Z,29.85
2023-01-09T21:05:17.326Z,8.13
2023-01-09T21:07:43.970Z,7.40
2023-01-09T21:10:11.179Z,7.03
2023-01-09T21:12:38.425Z,9.07
2023-01-09T21:15:08.423Z,7.82
2023-01-09T21:17:36.705Z,9.07
2023-01-09T21:20:05.160Z,6.43
2023-01-09T21:22:33.370Z,6.65
2023-01-09T21:25:00.362Z,8.20
2023-01-09T21:27:31.356Z,7.13
2023-01-09T21:29:58.129Z,3.33
2023-01-09T21:32:24.807Z,4.32
2023-01-09T21:34:51.514Z,5.82
2023-01-09T21:37:18.224Z,5.93
2023-01-09T21:39:44.857Z,7.20
2023-01-09T21:42:30.121Z,6.65
2023-01-09T21:45:15.704Z,4.18
2023-01-09T21:47:42.403Z,6.28
2023-01-09T21:50:09.591Z,5.18
2023-01-09T21:52:37.192Z,5.43
2023-01-09T21:55:04.058Z,4.97
2023-01-09T21:57:30.772Z,4.80
2023-01-09T21:59:57.592Z,7.95
2023-01-09T22:02:24.309Z,4.20
2023-01-09T22:04:51.314Z,4.65
2023-01-09T22:07:18.076Z,4.18
2023-01-09T22:09:45.667Z,6.88
2023-01-09T22:12:12.866Z,3.13
2023-01-09T22:14:39.752Z,5.70
2023-01-09T22:17:06.467Z,3.97
2023-01-09T22:19:33.244Z,3.08
2023-01-09T22:22:00.007Z,4.40
2023-01-09T22:24:26.743Z,5.68
2023-01-09T22:26:53.474Z,3.28
2023-01-09T22:29:21.759Z,4.05
2023-01-09T22:31:48.489Z,7.22
2023-01-09T22:34:16.873Z,2.95
2023-01-09T22:36:44.673Z,6.97
2023-01-09T22:39:15.806Z,6.18
2023-01-09T22:41:42.984Z,5.57
2023-01-09T22:44:11.449Z,5.45
2023-01-09T22:46:38.789Z,4.85
2023-01-09T22:49:05.537Z,6.43
2023-01-09T22:51:33.680Z,4.85
2023-01-09T22:54:01.009Z,5.70
2023-01-09T22:56:39.743Z,7.18
2023-01-09T22:59:06.498Z,6.00
2023-01-09T23:01:33.332Z,4.32
2023-01-09T23:04:00.187Z,6.50
2023-01-09T23:06:26.917Z,9.65
2023-01-09T23:08:53.679Z,3.97
2023-01-09T23:11:43.729Z,4.22
2023-01-09T23:14:11.429Z,5.72
2023-01-09T23:16:38.318Z,6.70
2023-01-09T23:19:09.819Z,8.07
2023-01-09T23:21:37.020Z,12.02
2023-01-09T23:24:03.914Z,9.23
2023-01-09T23:26:30.646Z,10.23
2023-01-09T23:28:57.349Z,6.82
2023-01-09T23:31:24.098Z,7.25
2023-01-09T23:33:50.814Z,5.45
2023-01-09T23:36:17.512Z,8.27
2023-01-09T23:38:44.711Z,6.95
2023-01-09T23:41:11.402Z,6.65
2023-01-09T23:43:38.092Z,11.40
2023-01-09T23:46:04.848Z,5.88
2023-01-09T23:48:31.624Z,6.78
2023-01-09T23:50:58.300Z,8.23
2023-01-09T23:53:25.366Z,6.65
2023-01-09T23:55:55.289Z,3.35
2023-01-09T23:58:22.060Z,4.97
